Yarrow, Missouri
Current Conditions -  °F | °C
As of 3:55 AM on Tuesday 21 Oct 2014 (Local Time) from KIRK Reporting Station
Clear Clear  
Wind Chill: 43°   Ceiling: Unl
Heat Index: 43°   Visibility: 10mi
Dew Point: 42°   Wind: 3mph
Humidity: 97%   Direction: 330°NNW
Pressure: 30.08"   Gusts: NA
Location:  40.149°N, 92.6667°W
Report Text: KIRK 210855Z AUTO 33003KT 10SM CLR 06/06 A3008 RMK AO2 SLP187 T00610056 51006
Loading
Personal Weather Stations






























Interactive Weather Map
Tropical Storm Tracking
New forecast layout! Learn more

10-Day Weather Forecast

Advertisements
Track Severe Weather on mobile